sensor_id;sensor_type;location;lat;lon;timestamp;pressure;altitude;pressure_sealevel;temperature;humidity
11676;BME280;5894;42.768;23.404;2023-06-04T00:01:04;95780.41;;;18.43;100.00
11676;BME280;5894;42.768;23.404;2023-06-04T00:03:31;95782.72;;;18.45;100.00
11676;BME280;5894;42.768;23.404;2023-06-04T00:05:59;95790.41;;;18.46;100.00
11676;BME280;5894;42.768;23.404;2023-06-04T00:08:28;95790.41;;;18.46;100.00
11676;BME280;5894;42.768;23.404;2023-06-04T00:10:55;95788.41;;;18.43;100.00
11676;BME280;5894;42.768;23.404;2023-06-04T00:13:22;95785.66;;;18.40;100.00
11676;BME280;5894;42.768;23.404;2023-06-04T00:15:49;95781.84;;;18.41;100.00
11676;BME280;5894;42.768;23.404;2023-06-04T00:18:16;95778.69;;;18.35;100.00
11676;BME280;5894;42.768;23.404;2023-06-04T00:20:43;95781.00;;;18.37;100.00
11676;BME280;5894;42.768;23.404;2023-06-04T00:23:10;95775.69;;;18.37;100.00
11676;BME280;5894;42.768;23.404;2023-06-04T00:25:39;95757.91;;;18.28;100.00
11676;BME280;5894;42.768;23.404;2023-06-04T00:28:06;95745.47;;;18.17;100.00
11676;BME280;5894;42.768;23.404;2023-06-04T00:30:33;95769.19;;;18.38;100.00
11676;BME280;5894;42.768;23.404;2023-06-04T00:33:01;95773.00;;;18.37;100.00
11676;BME280;5894;42.768;23.404;2023-06-04T00:35:28;95769.56;;;18.36;100.00
11676;BME280;5894;42.768;23.404;2023-06-04T00:37:55;95764.72;;;18.42;100.00
11676;BME280;5894;42.768;23.404;2023-06-04T00:40:22;95765.50;;;18.42;100.00
11676;BME280;5894;42.768;23.404;2023-06-04T00:42:50;95765.41;;;18.39;100.00
11676;BME280;5894;42.768;23.404;2023-06-04T00:45:21;95772.03;;;18.29;100.00
11676;BME280;5894;42.768;23.404;2023-06-04T00:47:51;95773.09;;;18.24;100.00
11676;BME280;5894;42.768;23.404;2023-06-04T00:50:18;95763.53;;;18.23;100.00
11676;BME280;5894;42.768;23.404;2023-06-04T00:52:47;95751.03;;;18.12;100.00
11676;BME280;5894;42.768;23.404;2023-06-04T00:55:14;95751.53;;;18.17;100.00
11676;BME280;5894;42.768;23.404;2023-06-04T00:57:44;95765.41;;;18.23;100.00
11676;BME280;5894;42.768;23.404;2023-06-04T01:00:13;95766.28;;;18.27;100.00
11676;BME280;5894;42.768;23.404;2023-06-04T01:02:43;95761.97;;;18.22;100.00
11676;BME280;5894;42.768;23.404;2023-06-04T01:05:20;95762.75;;;18.23;100.00
11676;BME280;5894;42.768;23.404;2023-06-04T01:07:49;95769.66;;;18.24;100.00
11676;BME280;5894;42.768;23.404;2023-06-04T01:10:17;95771.53;;;18.23;100.00
11676;BME280;5894;42.768;23.404;2023-06-04T01:12:44;95771.19;;;18.25;100.00
11676;BME280;5894;42.768;23.404;2023-06-04T01:15:14;95761.28;;;18.25;100.00
11676;BME280;5894;42.768;23.404;2023-06-04T01:17:43;95764.03;;;18.29;100.00
11676;BME280;5894;42.768;23.404;2023-06-04T01:20:26;95766.34;;;18.30;100.00
11676;BME280;5894;42.768;23.404;2023-06-04T01:23:24;95762.84;;;18.26;100.00
11676;BME280;5894;42.768;23.404;2023-06-04T01:25:55;95767.41;;;18.26;100.00
11676;BME280;5894;42.768;23.404;2023-06-04T01:28:23;95763.19;;;18.25;100.00
11676;BME280;5894;42.768;23.404;2023-06-04T01:30:52;95751.38;;;18.10;100.00
11676;BME280;5894;42.768;23.404;2023-06-04T01:33:22;95775.31;;;18.22;100.00
11676;BME280;5894;42.768;23.404;2023-06-04T01:35:50;95778.44;;;18.24;100.00
11676;BME280;5894;42.768;23.404;2023-06-04T01:38:17;95781.88;;;18.25;100.00
11676;BME280;5894;42.768;23.404;2023-06-04T01:40:45;95775.41;;;18.26;100.00
11676;BME280;5894;42.768;23.404;2023-06-04T01:43:13;95786.59;;;18.16;100.00
11676;BME280;5894;42.768;23.404;2023-06-04T01:45:40;95786.25;;;18.17;100.00
11676;BME280;5894;42.768;23.404;2023-06-04T01:48:08;95778.59;;;18.16;100.00
11676;BME280;5894;42.768;23.404;2023-06-04T01:50:35;95784.28;;;18.14;100.00
11676;BME280;5894;42.768;23.404;2023-06-04T01:53:02;95783.16;;;18.15;100.00
11676;BME280;5894;42.768;23.404;2023-06-04T01:55:30;95789.69;;;18.18;100.00
11676;BME280;5894;42.768;23.404;2023-06-04T01:57:59;95792.03;;;18.19;100.00
11676;BME280;5894;42.768;23.404;2023-06-04T02:00:27;95792.34;;;18.18;100.00
11676;BME280;5894;42.768;23.404;2023-06-04T02:02:54;95791.16;;;18.15;100.00
11676;BME280;5894;42.768;23.404;2023-06-04T02:05:23;95792.72;;;18.16;100.00
11676;BME280;5894;42.768;23.404;2023-06-04T02:07:50;95790.47;;;18.18;100.00
11676;BME280;5894;42.768;23.404;2023-06-04T02:10:18;95789.63;;;18.14;100.00
11676;BME280;5894;42.768;23.404;2023-06-04T02:12:54;95790.84;;;18.17;100.00
11676;BME280;5894;42.768;23.404;2023-06-04T02:15:23;95801.91;;;18.19;100.00
11676;BME280;5894;42.768;23.404;2023-06-04T02:17:50;95801.25;;;18.22;100.00
11676;BME280;5894;42.768;23.404;2023-06-04T02:20:18;95793.50;;;18.17;100.00
11676;BME280;5894;42.768;23.404;2023-06-04T02:22:46;95802.44;;;18.24;100.00
11676;BME280;5894;42.768;23.404;2023-06-04T02:25:13;95807.69;;;18.21;100.00
11676;BME280;5894;42.768;23.404;2023-06-04T02:27:41;95813.03;;;18.21;100.00
11676;BME280;5894;42.768;23.404;2023-06-04T02:30:09;95815.81;;;18.24;100.00
11676;BME280;5894;42.768;23.404;2023-06-04T02:32:36;95819.16;;;18.21;100.00
11676;BME280;5894;42.768;23.404;2023-06-04T02:35:05;95810.13;;;18.26;100.00
11676;BME280;5894;42.768;23.404;2023-06-04T02:37:32;95813.91;;;18.25;100.00
11676;BME280;5894;42.768;23.404;2023-06-04T02:40:01;95818.75;;;18.35;100.00
11676;BME280;5894;42.768;23.404;2023-06-04T02:42:29;95817.63;;;18.36;100.00
11676;BME280;5894;42.768;23.404;2023-06-04T02:44:56;95821.06;;;18.37;100.00
11676;BME280;5894;42.768;23.404;2023-06-04T02:47:23;95820.28;;;18.36;100.00
11676;BME280;5894;42.768;23.404;2023-06-04T02:49:51;95828.38;;;18.40;100.00
11676;BME280;5894;42.768;23.404;2023-06-04T02:52:18;95832.09;;;18.35;100.00
11676;BME280;5894;42.768;23.404;2023-06-04T02:54:48;95829.75;;;18.33;100.00
11676;BME280;5894;42.768;23.404;2023-06-04T02:57:17;95833.63;;;18.36;100.00
11676;BME280;5894;42.768;23.404;2023-06-04T02:59:44;95828.31;;;18.36;100.00
11676;BME280;5894;42.768;23.404;2023-06-04T03:02:11;95840.88;;;18.36;100.00
11676;BME280;5894;42.768;23.404;2023-06-04T03:04:38;95840.34;;;18.30;100.00
11676;BME280;5894;42.768;23.404;2023-06-04T03:07:05;95840.66;;;18.28;100.00
11676;BME280;5894;42.768;23.404;2023-06-04T03:09:34;95837.94;;;18.25;100.00
11676;BME280;5894;42.768;23.404;2023-06-04T03:12:01;95847.84;;;18.24;100.00
11676;BME280;5894;42.768;23.404;2023-06-04T03:14:31;95807.94;;;18.00;100.00
11676;BME280;5894;42.768;23.404;2023-06-04T03:16:59;95826.09;;;18.10;100.00
11676;BME280;5894;42.768;23.404;2023-06-04T03:19:33;95807.81;;;17.96;100.00
11676;BME280;5894;42.768;23.404;2023-06-04T03:22:01;95840.84;;;18.20;100.00
11676;BME280;5894;42.768;23.404;2023-06-04T03:24:33;95803.09;;;17.90;100.00
11676;BME280;5894;42.768;23.404;2023-06-04T03:27:02;95833.78;;;18.12;100.00
11676;BME280;5894;42.768;23.404;2023-06-04T03:29:33;95845.84;;;18.21;100.00
11676;BME280;5894;42.768;23.404;2023-06-04T03:32:04;95851.53;;;18.20;100.00
11676;BME280;5894;42.768;23.404;2023-06-04T03:34:32;95846.19;;;18.20;100.00
11676;BME280;5894;42.768;23.404;2023-06-04T03:36:59;95849.97;;;18.19;100.00
11676;BME280;5894;42.768;23.404;2023-06-04T03:39:27;95857.19;;;18.18;100.00
11676;BME280;5894;42.768;23.404;2023-06-04T03:41:55;95850.75;;;18.19;100.00
11676;BME280;5894;42.768;23.404;2023-06-04T03:44:25;95850.22;;;18.14;100.00
11676;BME280;5894;42.768;23.404;2023-06-04T03:46:54;95855.03;;;18.08;100.00
11676;BME280;5894;42.768;23.404;2023-06-04T03:49:22;95854.34;;;18.11;100.00
11676;BME280;5894;42.768;23.404;2023-06-04T03:51:49;95861.25;;;18.12;100.00
11676;BME280;5894;42.768;23.404;2023-06-04T03:54:18;95867.34;;;18.13;100.00
11676;BME280;5894;42.768;23.404;2023-06-04T03:56:47;95869.75;;;18.18;100.00
11676;BME280;5894;42.768;23.404;2023-06-04T03:59:15;95862.97;;;18.20;100.00
11676;BME280;5894;42.768;23.404;2023-06-04T04:01:42;95870.31;;;18.23;100.00
11676;BME280;5894;42.768;23.404;2023-06-04T04:04:11;95869.53;;;18.23;100.00
11676;BME280;5894;42.768;23.404;2023-06-04T04:06:38;95875.53;;;18.20;100.00
11676;BME280;5894;42.768;23.404;2023-06-04T04:09:06;95881.75;;;18.24;100.00
11676;BME280;5894;42.768;23.404;2023-06-04T04:11:34;95876.50;;;18.27;100.00
11676;BME280;5894;42.768;23.404;2023-06-04T04:14:02;95887.94;;;18.28;100.00
11676;BME280;5894;42.768;23.404;2023-06-04T04:16:29;95894.44;;;18.27;100.00
11676;BME280;5894;42.768;23.404;2023-06-04T04:18:57;95886.50;;;18.30;100.00
11676;BME280;5894;42.768;23.404;2023-06-04T04:21:26;95891.50;;;18.32;100.00
11676;BME280;5894;42.768;23.404;2023-06-04T04:23:53;95893.72;;;18.30;100.00
11676;BME280;5894;42.768;23.404;2023-06-04T04:26:21;95889.94;;;18.31;100.00
11676;BME280;5894;42.768;23.404;2023-06-04T04:28:52;95892.38;;;18.36;100.00
11676;BME280;5894;42.768;23.404;2023-06-04T04:31:24;95893.16;;;18.37;100.00
11676;BME280;5894;42.768;23.404;2023-06-04T04:33:51;95896.50;;;18.33;100.00
11676;BME280;5894;42.768;23.404;2023-06-04T04:36:20;95896.72;;;18.28;100.00
11676;BME280;5894;42.768;23.404;2023-06-04T04:38:49;95893.28;;;18.28;100.00
11676;BME280;5894;42.768;23.404;2023-06-04T04:41:21;95892.94;;;18.29;100.00
11676;BME280;5894;42.768;23.404;2023-06-04T04:43:52;95894.16;;;18.32;100.00
11676;BME280;5894;42.768;23.404;2023-06-04T04:46:23;95884.72;;;18.34;100.00
11676;BME280;5894;42.768;23.404;2023-06-04T04:48:52;95888.59;;;18.37;100.00
11676;BME280;5894;42.768;23.404;2023-06-04T04:51:19;95894.28;;;18.36;100.00
11676;BME280;5894;42.768;23.404;2023-06-04T04:53:46;95890.13;;;18.38;100.00
11676;BME280;5894;42.768;23.404;2023-06-04T04:56:14;95898.22;;;18.42;100.00
11676;BME280;5894;42.768;23.404;2023-06-04T04:58:46;95902.00;;;18.41;100.00
11676;BME280;5894;42.768;23.404;2023-06-04T05:01:13;95894.78;;;18.41;100.00
11676;BME280;5894;42.768;23.404;2023-06-04T05:03:41;95901.25;;;18.40;100.00
11676;BME280;5894;42.768;23.404;2023-06-04T05:06:11;95906.25;;;18.42;100.00
11676;BME280;5894;42.768;23.404;2023-06-04T05:08:38;95902.78;;;18.41;100.00
11676;BME280;5894;42.768;23.404;2023-06-04T05:11:05;95905.22;;;18.46;100.00
11676;BME280;5894;42.768;23.404;2023-06-04T05:13:34;95909.34;;;18.44;100.00
11676;BME280;5894;42.768;23.404;2023-06-04T05:16:04;95863.91;;;18.12;100.00
11676;BME280;5894;42.768;23.404;2023-06-04T05:18:34;95906.13;;;18.38;100.00
11676;BME280;5894;42.768;23.404;2023-06-04T05:21:03;95906.84;;;18.35;100.00
11676;BME280;5894;42.768;23.404;2023-06-04T05:23:34;95911.06;;;18.36;100.00
11676;BME280;5894;42.768;23.404;2023-06-04T05:26:03;95906.06;;;18.34;100.00
11676;BME280;5894;42.768;23.404;2023-06-04T05:28:30;95911.13;;;18.40;100.00
11676;BME280;5894;42.768;23.404;2023-06-04T05:31:00;95906.91;;;18.39;100.00
11676;BME280;5894;42.768;23.404;2023-06-04T05:33:32;95903.41;;;18.34;100.00
11676;BME280;5894;42.768;23.404;2023-06-04T05:36:04;95908.03;;;18.38;100.00
11676;BME280;5894;42.768;23.404;2023-06-04T05:38:37;95913.81;;;18.40;100.00
11676;BME280;5894;42.768;23.404;2023-06-04T05:41:07;95918.91;;;18.45;100.00
11676;BME280;5894;42.768;23.404;2023-06-04T05:43:37;95909.34;;;18.44;100.00
11676;BME280;5894;42.768;23.404;2023-06-04T05:46:07;95914.63;;;18.56;100.00
11676;BME280;5894;42.768;23.404;2023-06-04T05:48:37;95920.59;;;18.65;100.00
11676;BME280;5894;42.768;23.404;2023-06-04T05:51:04;95926.38;;;18.67;100.00
11676;BME280;5894;42.768;23.404;2023-06-04T05:53:32;95929.13;;;18.70;100.00
11676;BME280;5894;42.768;23.404;2023-06-04T05:55:59;95938.91;;;18.79;100.00
11676;BME280;5894;42.768;23.404;2023-06-04T05:58:27;95935.94;;;18.84;100.00
11676;BME280;5894;42.768;23.404;2023-06-04T06:00:54;95945.19;;;18.86;100.00
11676;BME280;5894;42.768;23.404;2023-06-04T06:03:23;95950.25;;;18.91;100.00
11676;BME280;5894;42.768;23.404;2023-06-04T06:05:50;95950.00;;;18.96;100.00
11676;BME280;5894;42.768;23.404;2023-06-04T06:08:17;95955.69;;;18.95;100.00
11676;BME280;5894;42.768;23.404;2023-06-04T06:10:45;95955.00;;;18.98;100.00
11676;BME280;5894;42.768;23.404;2023-06-04T06:13:12;95956.19;;;19.00;100.00
11676;BME280;5894;42.768;23.404;2023-06-04T06:15:39;95958.19;;;19.03;100.00
11676;BME280;5894;42.768;23.404;2023-06-04T06:18:07;95956.72;;;19.06;100.00
11676;BME280;5894;42.768;23.404;2023-06-04T06:20:36;95967.25;;;19.15;100.00
11676;BME280;5894;42.768;23.404;2023-06-04T06:23:06;95964.13;;;19.13;100.00
11676;BME280;5894;42.768;23.404;2023-06-04T06:25:34;95963.34;;;19.12;100.00
11676;BME280;5894;42.768;23.404;2023-06-04T06:28:06;95923.97;;;18.78;100.00
11676;BME280;5894;42.768;23.404;2023-06-04T06:30:35;95964.66;;;19.18;100.00
11676;BME280;5894;42.768;23.404;2023-06-04T06:33:05;95962.84;;;19.22;100.00
11676;BME280;5894;42.768;23.404;2023-06-04T06:35:32;95968.63;;;19.24;100.00
11676;BME280;5894;42.768;23.404;2023-06-04T06:38:01;95963.69;;;19.26;100.00
11676;BME280;5894;42.768;23.404;2023-06-04T06:40:28;95963.78;;;19.30;100.00
11676;BME280;5894;42.768;23.404;2023-06-04T06:42:56;95972.59;;;19.30;100.00
11676;BME280;5894;42.768;23.404;2023-06-04T06:45:23;95963.59;;;19.38;100.00
11676;BME280;5894;42.768;23.404;2023-06-04T07:53:27;96023.66;;;21.53;100.00
11676;BME280;5894;42.768;23.404;2023-06-04T07:55:54;96020.53;;;21.47;100.00
11676;BME280;5894;42.768;23.404;2023-06-04T07:58:21;96028.34;;;21.33;100.00
11676;BME280;5894;42.768;23.404;2023-06-04T08:00:48;96025.91;;;21.24;100.00
11676;BME280;5894;42.768;23.404;2023-06-04T08:03:16;96034.84;;;21.32;100.00
11676;BME280;5894;42.768;23.404;2023-06-04T08:05:46;95957.34;;;20.81;100.00
11676;BME280;5894;42.768;23.404;2023-06-04T08:08:13;96036.31;;;21.30;100.00
11676;BME280;5894;42.768;23.404;2023-06-04T08:10:41;96033.00;;;21.36;100.00
11676;BME280;5894;42.768;23.404;2023-06-04T08:13:09;96034.66;;;21.44;100.00
11676;BME280;5894;42.768;23.404;2023-06-04T08:15:36;96034.81;;;21.55;100.00
11676;BME280;5894;42.768;23.404;2023-06-04T08:18:03;96031.00;;;21.56;100.00
11676;BME280;5894;42.768;23.404;2023-06-04T08:20:30;96036.53;;;21.67;100.00
11676;BME280;5894;42.768;23.404;2023-06-04T08:22:58;96034.91;;;21.62;100.00
11676;BME280;5894;42.768;23.404;2023-06-04T08:25:25;96043.25;;;21.80;100.00
11676;BME280;5894;42.768;23.404;2023-06-04T08:27:54;96047.69;;;21.69;100.00
11676;BME280;5894;42.768;23.404;2023-06-04T08:30:21;96038.91;;;21.72;100.00
11676;BME280;5894;42.768;23.404;2023-06-04T08:32:49;96044.59;;;21.67;100.00
11676;BME280;5894;42.768;23.404;2023-06-04T08:35:16;96056.63;;;21.76;100.00
11676;BME280;5894;42.768;23.404;2023-06-04T08:37:43;96048.09;;;21.71;100.00
11676;BME280;5894;42.768;23.404;2023-06-04T08:40:11;96052.91;;;21.58;100.00
11676;BME280;5894;42.768;23.404;2023-06-04T08:42:41;96047.38;;;21.74;100.00
11676;BME280;5894;42.768;23.404;2023-06-04T08:45:12;96058.53;;;21.76;100.00
11676;BME280;5894;42.768;23.404;2023-06-04T08:47:43;96058.44;;;21.69;100.00
11676;BME280;5894;42.768;23.404;2023-06-04T08:50:12;96064.16;;;21.67;100.00
11676;BME280;5894;42.768;23.404;2023-06-04T08:52:40;96060.22;;;21.61;100.00
11676;BME280;5894;42.768;23.404;2023-06-04T08:55:08;96060.16;;;21.57;100.00
11676;BME280;5894;42.768;23.404;2023-06-04T08:57:39;96011.38;;;21.26;100.00
11676;BME280;5894;42.768;23.404;2023-06-04T09:00:09;96068.66;;;21.86;100.00
11676;BME280;5894;42.768;23.404;2023-06-04T09:02:42;96069.72;;;21.81;100.00
11676;BME280;5894;42.768;23.404;2023-06-04T09:05:10;96068.72;;;21.89;100.00
11676;BME280;5894;42.768;23.404;2023-06-04T09:07:46;96068.41;;;21.94;100.00
11676;BME280;5894;42.768;23.404;2023-06-04T09:10:18;96067.69;;;21.97;100.00
11676;BME280;5894;42.768;23.404;2023-06-04T09:12:47;96069.16;;;21.95;100.00
11676;BME280;5894;42.768;23.404;2023-06-04T09:15:15;96073.88;;;22.02;100.00
11676;BME280;5894;42.768;23.404;2023-06-04T09:17:44;96071.06;;;21.94;100.00
11676;BME280;5894;42.768;23.404;2023-06-04T09:20:20;96078.31;;;21.90;100.00
11676;BME280;5894;42.768;23.404;2023-06-04T09:22:47;96073.34;;;21.92;100.00
11676;BME280;5894;42.768;23.404;2023-06-04T09:25:23;96067.03;;;22.04;100.00
11676;BME280;5894;42.768;23.404;2023-06-04T09:27:51;96071.31;;;22.09;100.00
11676;BME280;5894;42.768;23.404;2023-06-04T09:30:18;96068.22;;;22.07;100.00
11676;BME280;5894;42.768;23.404;2023-06-04T09:32:47;96062.91;;;22.10;100.00
11676;BME280;5894;42.768;23.404;2023-06-04T09:35:16;96059.84;;;22.12;100.00
11676;BME280;5894;42.768;23.404;2023-06-04T09:37:52;96063.34;;;22.16;100.00
11676;BME280;5894;42.768;23.404;2023-06-04T09:40:19;96065.41;;;22.26;100.00
11676;BME280;5894;42.768;23.404;2023-06-04T09:42:47;96065.53;;;22.37;100.00
11676;BME280;5894;42.768;23.404;2023-06-04T09:45:28;96067.38;;;22.59;100.00
11676;BME280;5894;42.768;23.404;2023-06-04T09:47:58;96008.78;;;22.12;100.00
11676;BME280;5894;42.768;23.404;2023-06-04T09:50:26;96072.66;;;22.52;100.00
11676;BME280;5894;42.768;23.404;2023-06-04T09:52:53;96074.72;;;22.65;100.00
11676;BME280;5894;42.768;23.404;2023-06-04T09:55:20;96072.00;;;22.62;100.00
11676;BME280;5894;42.768;23.404;2023-06-04T09:57:49;96072.91;;;22.73;100.00
11676;BME280;5894;42.768;23.404;2023-06-04T10:00:18;96073.63;;;22.70;100.00
11676;BME280;5894;42.768;23.404;2023-06-04T10:02:50;96072.53;;;22.75;100.00
11676;BME280;5894;42.768;23.404;2023-06-04T10:05:24;96061.91;;;22.82;100.00
11676;BME280;5894;42.768;23.404;2023-06-04T10:07:52;96071.22;;;22.91;100.00
11676;BME280;5894;42.768;23.404;2023-06-04T10:10:21;96056.94;;;22.84;100.00
11676;BME280;5894;42.768;23.404;2023-06-04T10:12:53;96042.03;;;22.93;100.00
11676;BME280;5894;42.768;23.404;2023-06-04T10:15:22;96069.22;;;23.22;100.00
11676;BME280;5894;42.768;23.404;2023-06-04T10:17:50;96066.44;;;23.11;100.00
11676;BME280;5894;42.768;23.404;2023-06-04T10:20:19;96066.50;;;23.18;100.00
11676;BME280;5894;42.768;23.404;2023-06-04T10:22:50;96069.66;;;23.27;99.57
11676;BME280;5894;42.768;23.404;2023-06-04T10:25:18;96072.06;;;23.39;100.00
11676;BME280;5894;42.768;23.404;2023-06-04T10:27:46;96079.44;;;23.46;97.34
11676;BME280;5894;42.768;23.404;2023-06-04T10:30:13;96067.56;;;23.51;98.55
11676;BME280;5894;42.768;23.404;2023-06-04T10:32:40;96065.78;;;23.65;97.43
11676;BME280;5894;42.768;23.404;2023-06-04T10:35:08;96073.94;;;23.79;97.28
11676;BME280;5894;42.768;23.404;2023-06-04T10:37:35;96065.91;;;23.83;95.17
11676;BME280;5894;42.768;23.404;2023-06-04T10:40:05;96071.38;;;23.94;93.90
11676;BME280;5894;42.768;23.404;2023-06-04T10:42:43;96072.22;;;24.05;94.60
11676;BME280;5894;42.768;23.404;2023-06-04T10:45:10;96076.09;;;24.11;95.23
11676;BME280;5894;42.768;23.404;2023-06-04T10:47:40;96057.59;;;24.06;94.08
11676;BME280;5894;42.768;23.404;2023-06-04T10:50:09;96065.09;;;24.34;93.56
11676;BME280;5894;42.768;23.404;2023-06-04T10:52:37;96068.63;;;24.48;91.20
11676;BME280;5894;42.768;23.404;2023-06-04T10:55:08;96061.31;;;24.52;89.68
11676;BME280;5894;42.768;23.404;2023-06-04T10:57:35;96059.81;;;24.59;89.86
11676;BME280;5894;42.768;23.404;2023-06-04T11:00:03;96058.66;;;24.63;91.19
11676;BME280;5894;42.768;23.404;2023-06-04T11:02:35;96059.84;;;24.73;92.00
11676;BME280;5894;42.768;23.404;2023-06-04T11:05:05;96054.09;;;24.78;88.95
11676;BME280;5894;42.768;23.404;2023-06-04T11:07:42;96062.22;;;24.85;89.18
11676;BME280;5894;42.768;23.404;2023-06-04T11:10:12;96062.22;;;24.85;91.13
11676;BME280;5894;42.768;23.404;2023-06-04T11:12:44;96054.88;;;24.78;89.04
11676;BME280;5894;42.768;23.404;2023-06-04T11:15:11;96061.81;;;24.79;89.47
11676;BME280;5894;42.768;23.404;2023-06-04T11:17:49;96061.00;;;24.72;88.60
11676;BME280;5894;42.768;23.404;2023-06-04T11:20:17;96034.75;;;24.47;89.76
11676;BME280;5894;42.768;23.404;2023-06-04T11:22:51;96049.75;;;24.48;88.07
11676;BME280;5894;42.768;23.404;2023-06-04T11:25:20;96054.78;;;24.54;90.74
11676;BME280;5894;42.768;23.404;2023-06-04T11:27:48;96052.44;;;24.45;89.38
11676;BME280;5894;42.768;23.404;2023-06-04T11:30:17;96055.50;;;24.43;91.30
11676;BME280;5894;42.768;23.404;2023-06-04T11:32:46;95968.91;;;23.79;90.67
11676;BME280;5894;42.768;23.404;2023-06-04T11:35:14;96032.34;;;24.28;91.04
11676;BME280;5894;42.768;23.404;2023-06-04T11:37:53;96058.16;;;24.40;92.02
11676;BME280;5894;42.768;23.404;2023-06-04T11:40:22;96055.47;;;24.36;90.42
11676;BME280;5894;42.768;23.404;2023-06-04T11:42:49;96049.63;;;24.24;93.26
11676;BME280;5894;42.768;23.404;2023-06-04T11:45:20;96048.09;;;24.23;93.24
11676;BME280;5894;42.768;23.404;2023-06-04T11:47:48;96021.84;;;24.16;93.43
11676;BME280;5894;42.768;23.404;2023-06-04T11:50:16;96047.03;;;24.41;94.18
11676;BME280;5894;42.768;23.404;2023-06-04T11:52:43;96057.81;;;24.45;92.66
11676;BME280;5894;42.768;23.404;2023-06-04T11:55:11;96052.44;;;24.45;91.50
11676;BME280;5894;42.768;23.404;2023-06-04T11:57:40;96055.53;;;24.50;90.40
11676;BME280;5894;42.768;23.404;2023-06-04T12:00:08;96041.56;;;24.24;87.08
11676;BME280;5894;42.768;23.404;2023-06-04T12:02:36;96056.59;;;24.28;88.49
11676;BME280;5894;42.768;23.404;2023-06-04T12:05:13;96059.34;;;24.39;88.46
11676;BME280;5894;42.768;23.404;2023-06-04T12:07:41;96032.41;;;24.39;91.29
11676;BME280;5894;42.768;23.404;2023-06-04T12:10:08;96049.41;;;24.57;88.67
11676;BME280;5894;42.768;23.404;2023-06-04T12:12:37;96056.34;;;24.58;86.69
11676;BME280;5894;42.768;23.404;2023-06-04T12:15:08;96055.66;;;24.79;86.98
11676;BME280;5894;42.768;23.404;2023-06-04T12:17:35;96056.41;;;24.83;88.64
11676;BME280;5894;42.768;23.404;2023-06-04T12:20:04;96056.78;;;24.81;85.09
11676;BME280;5894;42.768;23.404;2023-06-04T12:22:31;96055.28;;;24.87;89.25
11676;BME280;5894;42.768;23.404;2023-06-04T12:24:58;96054.13;;;24.85;87.98
11676;BME280;5894;42.768;23.404;2023-06-04T12:27:28;96044.84;;;24.79;88.55
11676;BME280;5894;42.768;23.404;2023-06-04T12:30:00;96052.97;;;24.90;90.08
11676;BME280;5894;42.768;23.404;2023-06-04T12:32:29;96057.97;;;24.80;87.52
11676;BME280;5894;42.768;23.404;2023-06-04T12:34:56;96058.34;;;24.82;86.11
11676;BME280;5894;42.768;23.404;2023-06-04T12:37:24;96017.44;;;24.59;84.30
11676;BME280;5894;42.768;23.404;2023-06-04T12:39:53;96043.66;;;24.73;87.53
11676;BME280;5894;42.768;23.404;2023-06-04T12:42:21;96052.91;;;24.72;87.71
11676;BME280;5894;42.768;23.404;2023-06-04T12:44:48;96042.91;;;24.76;88.70
11676;BME280;5894;42.768;23.404;2023-06-04T12:47:15;96045.63;;;24.76;91.04
11676;BME280;5894;42.768;23.404;2023-06-04T12:49:44;96058.75;;;24.81;90.22
11676;BME280;5894;42.768;23.404;2023-06-04T12:52:12;96050.25;;;24.82;90.11
11676;BME280;5894;42.768;23.404;2023-06-04T12:54:39;96057.56;;;24.78;90.40
11676;BME280;5894;42.768;23.404;2023-06-04T12:57:06;96051.03;;;24.79;90.80
11676;BME280;5894;42.768;23.404;2023-06-04T12:59:34;96051.81;;;24.80;86.69
11676;BME280;5894;42.768;23.404;2023-06-04T13:02:01;96049.44;;;24.64;86.37
11676;BME280;5894;42.768;23.404;2023-06-04T13:04:28;96046.31;;;24.55;88.16
11676;BME280;5894;42.768;23.404;2023-06-04T13:06:59;96047.47;;;24.54;86.58
11676;BME280;5894;42.768;23.404;2023-06-04T13:09:27;96053.22;;;24.45;86.59
11676;BME280;5894;42.768;23.404;2023-06-04T13:11:54;96053.56;;;24.37;86.33
11676;BME280;5894;42.768;23.404;2023-06-04T13:14:22;96045.34;;;24.15;88.57
11676;BME280;5894;42.768;23.404;2023-06-04T13:16:49;96041.88;;;24.15;89.69
11676;BME280;5894;42.768;23.404;2023-06-04T13:19:17;96044.47;;;23.97;90.28
11676;BME280;5894;42.768;23.404;2023-06-04T13:21:45;96041.00;;;23.97;91.07
11676;BME280;5894;42.768;23.404;2023-06-04T13:24:13;96039.78;;;23.91;92.21
11676;BME280;5894;42.768;23.404;2023-06-04T13:26:41;96037.03;;;23.76;92.85
11676;BME280;5894;42.768;23.404;2023-06-04T13:29:08;96032.34;;;23.66;94.53
11676;BME280;5894;42.768;23.404;2023-06-04T13:31:35;96036.47;;;23.57;93.85
11676;BME280;5894;42.768;23.404;2023-06-04T13:34:04;96033.28;;;23.48;93.77
11676;BME280;5894;42.768;23.404;2023-06-04T13:36:31;96039.91;;;23.54;95.42
11676;BME280;5894;42.768;23.404;2023-06-04T13:38:58;96039.88;;;23.50;94.04
11676;BME280;5894;42.768;23.404;2023-06-04T13:41:30;96042.25;;;23.59;95.06
11676;BME280;5894;42.768;23.404;2023-06-04T13:43:58;96035.00;;;23.63;93.51
11676;BME280;5894;42.768;23.404;2023-06-04T13:46:26;96038.00;;;23.54;94.21
11676;BME280;5894;42.768;23.404;2023-06-04T13:48:53;96039.56;;;23.55;94.38
11676;BME280;5894;42.768;23.404;2023-06-04T13:51:20;96037.13;;;23.47;96.90
11676;BME280;5894;42.768;23.404;2023-06-04T13:53:47;96031.84;;;23.54;97.93
11676;BME280;5894;42.768;23.404;2023-06-04T13:56:17;96032.59;;;23.51;96.91
11676;BME280;5894;42.768;23.404;2023-06-04T13:58:46;96023.78;;;23.54;95.52
11676;BME280;5894;42.768;23.404;2023-06-04T14:01:13;96027.59;;;23.53;96.30
11676;BME280;5894;42.768;23.404;2023-06-04T14:03:42;96026.06;;;23.52;97.29
11676;BME280;5894;42.768;23.404;2023-06-04T14:06:09;95983.53;;;23.27;94.89